createdAt,value
2023-04-15T00:01:49.432Z,6.10
2023-04-15T00:04:52.875Z,6.08
2023-04-15T00:07:56.016Z,6.14
2023-04-15T00:11:03.143Z,6.09
2023-04-15T00:14:06.451Z,6.12
2023-04-15T00:17:09.558Z,6.05
2023-04-15T00:20:12.476Z,6.07
2023-04-15T00:23:15.872Z,6.18
2023-04-15T00:26:19.677Z,6.25
2023-04-15T00:29:23.239Z,6.14
2023-04-15T00:32:27.142Z,6.13
2023-04-15T00:35:32.936Z,6.12
2023-04-15T00:38:38.255Z,6.04
2023-04-15T00:41:41.682Z,6.05
2023-04-15T00:44:44.586Z,6.13
2023-04-15T00:47:47.738Z,6.13
2023-04-15T00:50:50.698Z,6.21
2023-04-15T00:53:53.734Z,6.20
2023-04-15T00:56:56.805Z,6.20
2023-04-15T01:00:01.351Z,6.18
2023-04-15T01:03:04.292Z,6.14
2023-04-15T01:06:08.667Z,6.14
2023-04-15T01:09:12.118Z,6.12
2023-04-15T01:12:17.249Z,6.06
2023-04-15T01:15:21.551Z,5.99
2023-04-15T01:18:24.864Z,5.95
2023-04-15T01:21:28.259Z,5.95
2023-04-15T01:24:33.503Z,5.95
2023-04-15T01:27:40.277Z,5.91
2023-04-15T01:30:44.881Z,5.94
2023-04-15T01:33:47.781Z,5.92
2023-04-15T01:36:51.513Z,5.98
2023-04-15T01:39:54.457Z,5.91
2023-04-15T01:42:57.874Z,5.90
2023-04-15T01:46:00.696Z,5.91
2023-04-15T01:49:03.796Z,5.94
2023-04-15T01:52:08.237Z,5.94
2023-04-15T01:55:12.815Z,5.88
2023-04-15T01:58:15.954Z,5.86
2023-04-15T02:01:20.575Z,5.83
2023-04-15T02:04:24.211Z,5.86
2023-04-15T02:07:29.079Z,5.89
2023-04-15T02:10:32.313Z,5.99
2023-04-15T02:13:35.338Z,5.82
2023-04-15T02:16:38.542Z,5.79
2023-04-15T02:19:41.430Z,5.74
2023-04-15T02:22:44.537Z,5.70
2023-04-15T02:25:53.447Z,5.63
2023-04-15T02:28:57.362Z,5.62
2023-04-15T02:32:00.174Z,5.53
2023-04-15T02:35:05.785Z,5.48
2023-04-15T02:38:08.760Z,5.40
2023-04-15T02:41:11.883Z,5.45
2023-04-15T02:44:14.672Z,5.35
2023-04-15T02:47:19.225Z,5.42
2023-04-15T02:50:23.812Z,5.39
2023-04-15T02:53:27.052Z,5.40
2023-04-15T02:56:31.072Z,5.35
2023-04-15T02:59:34.141Z,5.31
2023-04-15T03:02:38.922Z,5.33
2023-04-15T03:05:42.421Z,5.35
2023-04-15T03:08:45.857Z,5.31
2023-04-15T03:11:49.432Z,5.40
2023-04-15T03:14:52.544Z,5.48
2023-04-15T03:17:57.555Z,5.51
2023-04-15T03:21:00.483Z,5.57
2023-04-15T03:24:04.053Z,5.62
2023-04-15T03:27:08.185Z,5.75
2023-04-15T03:30:12.537Z,5.82
2023-04-15T03:33:16.447Z,5.92
2023-04-15T03:36:19.819Z,6.00
2023-04-15T03:39:22.735Z,6.07
2023-04-15T03:42:26.096Z,6.10
2023-04-15T03:45:29.343Z,6.16
2023-04-15T03:48:32.598Z,6.09
2023-04-15T03:51:35.921Z,5.95
2023-04-15T03:54:38.894Z,5.80
2023-04-15T03:57:41.983Z,5.79
2023-04-15T04:00:45.049Z,5.81
2023-04-15T04:03:48.167Z,5.87
2023-04-15T04:06:51.227Z,5.91
2023-04-15T04:09:54.250Z,5.92
2023-04-15T04:12:57.091Z,5.92
2023-04-15T04:16:00.299Z,5.90
2023-04-15T04:19:03.250Z,5.89
2023-04-15T04:22:06.877Z,5.92
2023-04-15T04:25:10.682Z,5.96
2023-04-15T04:28:13.805Z,5.99
2023-04-15T04:31:17.235Z,6.03
2023-04-15T04:34:20.476Z,6.11
2023-04-15T04:37:24.813Z,6.21
2023-04-15T04:40:27.826Z,6.25
2023-04-15T04:43:30.921Z,6.30
2023-04-15T04:46:34.225Z,6.35
2023-04-15T04:49:37.113Z,6.41
2023-04-15T04:52:40.380Z,6.48
2023-04-15T04:55:42.946Z,6.59
2023-04-15T04:58:46.060Z,6.65
2023-04-15T05:01:48.755Z,6.69
2023-04-15T05:04:54.549Z,6.77
2023-04-15T05:07:57.692Z,6.85
2023-04-15T05:11:01.101Z,6.92
2023-04-15T05:14:04.096Z,7.04
2023-04-15T05:17:07.100Z,7.14
2023-04-15T05:20:10.749Z,7.28
2023-04-15T05:23:14.089Z,7.43
2023-04-15T05:26:17.906Z,7.51
2023-04-15T05:29:21.008Z,7.78
2023-04-15T05:32:23.689Z,8.55
2023-04-15T05:35:27.399Z,8.49
2023-04-15T05:38:30.087Z,8.48
2023-04-15T05:41:33.233Z,8.44
2023-04-15T05:44:35.842Z,8.46
2023-04-15T05:47:38.896Z,8.47
2023-04-15T05:50:42.592Z,8.16
2023-04-15T05:53:46.488Z,7.89
2023-04-15T05:56:49.668Z,7.97
2023-04-15T05:59:53.112Z,7.85
2023-04-15T06:02:58.064Z,7.90
2023-04-15T06:06:01.669Z,7.74
2023-04-15T06:09:06.363Z,7.82
2023-04-15T06:12:12.487Z,7.97
2023-04-15T06:15:15.401Z,8.23
2023-04-15T06:18:18.499Z,8.69
2023-04-15T06:21:21.324Z,9.10
2023-04-15T06:24:24.405Z,9.38
2023-04-15T06:27:27.595Z,9.44
2023-04-15T06:30:30.751Z,9.76
2023-04-15T06:33:33.418Z,10.10
2023-04-15T06:36:36.492Z,10.26
2023-04-15T06:39:39.551Z,10.08
2023-04-15T06:42:42.730Z,10.52
2023-04-15T06:45:46.098Z,10.73
2023-04-15T06:48:49.170Z,10.23
2023-04-15T06:51:51.946Z,9.69
2023-04-15T06:54:54.935Z,9.45
2023-04-15T06:57:57.797Z,9.51
2023-04-15T07:01:00.978Z,9.11
2023-04-15T07:04:04.253Z,8.81
2023-04-15T07:07:08.418Z,8.71
2023-04-15T07:10:12.344Z,8.60
2023-04-15T07:13:15.460Z,8.57
2023-04-15T07:16:18.595Z,8.53
2023-04-15T07:19:22.054Z,8.46
2023-04-15T07:22:25.301Z,8.35
2023-04-15T07:25:28.321Z,8.31
2023-04-15T07:28:31.176Z,8.25
2023-04-15T07:31:34.432Z,8.44
2023-04-15T07:34:38.200Z,8.57
2023-04-15T07:37:42.142Z,8.61
2023-04-15T07:40:44.960Z,8.90
2023-04-15T07:43:48.992Z,8.99
2023-04-15T07:46:51.703Z,9.25
2023-04-15T07:49:54.647Z,9.40
2023-04-15T07:52:57.912Z,9.27
2023-04-15T07:56:00.794Z,9.38
2023-04-15T07:59:05.017Z,9.53
2023-04-15T08:02:08.837Z,9.86
2023-04-15T08:05:11.971Z,10.19
2023-04-15T08:08:14.623Z,9.97
2023-04-15T08:11:17.937Z,9.94
2023-04-15T08:14:21.051Z,9.93
2023-04-15T08:17:24.565Z,10.04
2023-04-15T08:20:27.349Z,10.03
2023-04-15T08:23:30.431Z,9.96
2023-04-15T08:26:33.500Z,10.12
2023-04-15T08:29:36.697Z,10.47
2023-04-15T08:32:39.481Z,10.97
2023-04-15T08:35:42.483Z,11.02
2023-04-15T08:38:45.814Z,11.48
2023-04-15T08:42:02.081Z,11.30
2023-04-15T08:45:06.024Z,10.92
2023-04-15T08:48:14.427Z,11.06
2023-04-15T08:51:18.312Z,10.66
2023-04-15T08:54:21.601Z,10.42
2023-04-15T08:57:28.622Z,10.14
2023-04-15T09:00:32.721Z,9.87
2023-04-15T09:03:36.030Z,9.57
2023-04-15T09:06:40.958Z,9.55
2023-04-15T09:09:43.752Z,9.81
2023-04-15T09:12:46.880Z,10.06
2023-04-15T09:15:50.433Z,10.14
2023-04-15T09:18:54.319Z,10.16
2023-04-15T09:21:59.666Z,9.99
2023-04-15T09:25:02.778Z,10.04
2023-04-15T09:28:05.578Z,10.11
2023-04-15T09:31:08.718Z,9.97
2023-04-15T09:34:11.778Z,9.93
2023-04-15T09:37:31.766Z,9.81
2023-04-15T09:40:42.306Z,9.76
2023-04-15T09:43:46.105Z,9.55
2023-04-15T09:46:48.642Z,9.75
2023-04-15T09:49:59.390Z,9.88
2023-04-15T09:53:04.163Z,9.91
2023-04-15T09:56:09.196Z,10.02
2023-04-15T09:59:12.227Z,10.01
2023-04-15T10:02:19.240Z,10.11
2023-04-15T10:05:23.746Z,9.96
2023-04-15T10:08:31.744Z,10.07
2023-04-15T10:11:36.322Z,10.20
2023-04-15T10:14:41.060Z,10.40
2023-04-15T10:17:45.648Z,10.28
2023-04-15T10:20:49.351Z,10.27
2023-04-15T10:23:52.440Z,10.26
2023-04-15T10:26:55.676Z,10.26
2023-04-15T10:30:01.053Z,10.02
2023-04-15T10:33:05.506Z,9.95
2023-04-15T10:36:09.014Z,9.82
2023-04-15T10:39:47.232Z,9.69
2023-04-15T10:42:50.295Z,9.58
2023-04-15T10:45:53.927Z,9.78
2023-04-15T10:48:57.851Z,10.23
2023-04-15T10:52:01.566Z,10.50
2023-04-15T10:55:12.667Z,10.63
2023-04-15T10:58:15.725Z,10.78
2023-04-15T11:01:23.437Z,10.50
2023-04-15T11:04:55.355Z,10.43
2023-04-15T11:07:58.887Z,10.20
2023-04-15T11:11:01.987Z,10.13
2023-04-15T11:14:05.212Z,10.56
2023-04-15T11:17:08.170Z,10.61
2023-04-15T11:20:16.331Z,10.72
2023-04-15T11:23:29.004Z,10.51
2023-04-15T11:26:32.479Z,10.50
2023-04-15T11:29:35.192Z,10.32
2023-04-15T11:32:42.298Z,10.34
2023-04-15T11:35:45.236Z,10.17
2023-04-15T11:38:48.252Z,9.85
2023-04-15T11:41:50.864Z,9.54
2023-04-15T11:45:16.504Z,9.40
2023-04-15T11:48:20.377Z,9.45
2023-04-15T11:51:23.494Z,9.44
2023-04-15T11:54:28.837Z,9.45
2023-04-15T11:57:32.418Z,9.50
2023-04-15T12:00:35.950Z,9.67
2023-04-15T12:03:40.848Z,10.16
2023-04-15T12:06:43.882Z,10.68
2023-04-15T12:09:55.330Z,11.13
2023-04-15T12:12:57.971Z,11.30
2023-04-15T12:16:00.900Z,11.57
2023-04-15T12:19:10.499Z,11.68
2023-04-15T12:22:18.117Z,11.62
2023-04-15T12:25:34.702Z,11.67
2023-04-15T12:28:41.252Z,11.50
2023-04-15T12:31:53.627Z,11.86
2023-04-15T12:34:57.583Z,12.11
2023-04-15T12:38:00.558Z,12.05
2023-04-15T12:41:04.118Z,11.72
2023-04-15T12:44:06.955Z,11.89
2023-04-15T12:47:13.760Z,11.92
2023-04-15T12:50:18.271Z,11.87
2023-04-15T12:53:21.881Z,11.99
2023-04-15T12:56:25.012Z,12.03
2023-04-15T12:59:29.314Z,11.96
2023-04-15T13:02:32.242Z,11.65
2023-04-15T13:05:37.209Z,11.49
2023-04-15T13:08:42.686Z,11.38
2023-04-15T13:11:51.294Z,11.31
2023-04-15T13:14:53.866Z,10.88
2023-04-15T13:17:56.925Z,10.60
2023-04-15T13:20:59.687Z,10.41
2023-04-15T13:24:02.775Z,10.24
2023-04-15T13:27:05.986Z,10.15
2023-04-15T13:30:09.510Z,10.09
2023-04-15T13:33:12.437Z,9.91
2023-04-15T13:36:15.730Z,10.04
2023-04-15T13:39:18.545Z,10.31
2023-04-15T13:42:22.915Z,10.38
2023-04-15T13:45:26.383Z,10.48
2023-04-15T13:48:29.309Z,10.74
2023-04-15T13:51:33.128Z,10.93
2023-04-15T13:54:37.133Z,11.15
2023-04-15T13:57:41.448Z,11.24
2023-04-15T14:00:44.645Z,11.22
2023-04-15T14:03:47.942Z,11.13
2023-04-15T14:06:51.171Z,11.47
2023-04-15T14:09:55.251Z,11.72
2023-04-15T14:12:57.853Z,11.93
2023-04-15T14:16:00.802Z,11.79
2023-04-15T14:19:03.721Z,12.12
2023-04-15T14:22:07.633Z,11.80
2023-04-15T14:25:17.217Z,12.04
2023-04-15T14:28:26.415Z,11.92
2023-04-15T14:31:29.134Z,11.74
2023-04-15T14:34:32.035Z,11.78
2023-04-15T14:37:34.647Z,12.14
2023-04-15T14:40:37.678Z,12.26
2023-04-15T14:43:40.991Z,12.08
2023-04-15T14:46:43.867Z,12.16
2023-04-15T14:49:46.708Z,12.05
2023-04-15T14:52:49.987Z,12.04
2023-04-15T14:55:52.686Z,11.73
2023-04-15T14:58:55.831Z,11.95
2023-04-15T15:01:58.804Z,11.70
2023-04-15T15:05:03.017Z,11.67
2023-04-15T15:08:08.285Z,12.00
2023-04-15T15:11:11.494Z,12.14
2023-04-15T15:14:15.569Z,12.24
2023-04-15T15:17:19.613Z,12.39
2023-04-15T15:20:23.404Z,12.55
2023-04-15T15:23:26.320Z,12.46
2023-04-15T15:26:30.018Z,12.48
2023-04-15T15:29:33.320Z,12.53
2023-04-15T15:32:36.231Z,12.34
2023-04-15T15:35:41.490Z,12.03
2023-04-15T15:38:44.202Z,12.01
2023-04-15T15:41:47.558Z,12.01
2023-04-15T15:44:52.920Z,12.00
2023-04-15T15:47:57.448Z,12.03
2023-04-15T15:51:00.185Z,12.11
2023-04-15T15:54:03.503Z,12.14
2023-04-15T15:57:06.838Z,12.11
2023-04-15T16:00:12.524Z,11.92
2023-04-15T16:03:16.233Z,11.85
2023-04-15T16:06:18.967Z,11.76
2023-04-15T16:09:22.332Z,11.60
2023-04-15T16:12:25.335Z,11.54
2023-04-15T16:15:28.333Z,11.41
2023-04-15T16:18:31.508Z,11.32
2023-04-15T16:21:35.617Z,11.20
2023-04-15T16:24:38.363Z,11.13
2023-04-15T16:27:56.517Z,11.15
2023-04-15T16:31:03.080Z,11.10
2023-04-15T16:34:06.692Z,11.08
2023-04-15T16:37:09.716Z,11.08
2023-04-15T16:40:13.076Z,11.03
2023-04-15T16:43:16.303Z,10.98
2023-04-15T16:46:19.810Z,11.01
2023-04-15T16:49:22.884Z,10.97
2023-04-15T16:52:28.406Z,10.89
2023-04-15T16:55:32.215Z,10.83
2023-04-15T16:58:35.323Z,10.79
2023-04-15T17:01:38.272Z,10.73
2023-04-15T17:04:43.569Z,10.68
2023-04-15T17:07:46.563Z,10.62
2023-04-15T17:10:51.938Z,10.60
2023-04-15T17:13:54.598Z,10.52
2023-04-15T17:16:57.837Z,10.47
2023-04-15T17:20:00.723Z,10.44
2023-04-15T17:23:04.324Z,10.42
2023-04-15T17:26:07.440Z,10.37
2023-04-15T17:29:10.826Z,10.31
2023-04-15T17:32:14.425Z,10.23
2023-04-15T17:35:17.927Z,10.14
2023-04-15T17:38:21.368Z,10.06
2023-04-15T17:41:28.283Z,9.96
2023-04-15T17:44:31.206Z,9.85
2023-04-15T17:47:34.307Z,9.77
2023-04-15T17:50:39.122Z,9.70
2023-04-15T17:53:42.409Z,9.63
2023-04-15T17:56:46.303Z,9.59
2023-04-15T17:59:50.213Z,9.55
2023-04-15T18:02:53.461Z,9.54
2023-04-15T18:05:56.757Z,9.55
2023-04-15T18:09:00.333Z,9.56
2023-04-15T18:12:08.227Z,9.58
2023-04-15T18:15:12.437Z,9.56
2023-04-15T18:18:16.211Z,9.63
2023-04-15T18:21:19.434Z,9.72
2023-04-15T18:24:22.961Z,9.76
2023-04-15T18:27:25.905Z,9.72
2023-04-15T18:30:29.766Z,9.71
2023-04-15T18:33:32.973Z,9.56
2023-04-15T18:36:36.708Z,9.50
2023-04-15T18:39:39.542Z,9.63
2023-04-15T18:42:43.609Z,9.64
2023-04-15T18:45:47.486Z,9.72
2023-04-15T18:48:50.555Z,9.68
2023-04-15T18:51:54.185Z,9.60
2023-04-15T18:54:58.174Z,9.68
2023-04-15T18:58:06.477Z,9.61
2023-04-15T19:01:12.481Z,9.59
2023-04-15T19:04:17.055Z,9.64
2023-04-15T19:07:21.226Z,9.67
2023-04-15T19:10:25.067Z,9.47
2023-04-15T19:13:29.080Z,9.11
2023-04-15T19:16:32.782Z,8.73
2023-04-15T19:19:37.200Z,8.63
2023-04-15T19:22:41.111Z,8.57
2023-04-15T19:25:44.811Z,8.63
2023-04-15T19:28:49.766Z,8.56
2023-04-15T19:31:53.990Z,8.67
2023-04-15T19:34:57.270Z,8.62
2023-04-15T19:38:00.908Z,8.84
2023-04-15T19:41:05.008Z,8.94
2023-04-15T19:44:08.712Z,8.91
2023-04-15T19:47:13.907Z,8.74
2023-04-15T19:50:20.833Z,8.66
2023-04-15T19:53:26.071Z,8.67
2023-04-15T19:56:30.778Z,8.71
2023-04-15T19:59:36.225Z,8.78
2023-04-15T20:02:40.826Z,8.82
2023-04-15T20:05:45.063Z,8.78
2023-04-15T20:08:48.589Z,8.92
2023-04-15T20:12:09.327Z,8.93
2023-04-15T20:15:16.353Z,8.65
2023-04-15T20:18:19.720Z,8.70
2023-04-15T20:21:24.821Z,8.76
2023-04-15T20:24:28.370Z,8.74
2023-04-15T20:27:39.628Z,8.86
2023-04-15T20:30:47.823Z,8.82
2023-04-15T20:33:50.767Z,8.81
2023-04-15T20:36:56.586Z,8.91
2023-04-15T20:40:00.757Z,8.88
2023-04-15T20:43:04.494Z,8.87
2023-04-15T20:46:17.865Z,8.89
2023-04-15T20:49:24.470Z,8.86
2023-04-15T20:52:27.602Z,8.89
2023-04-15T20:55:31.347Z,8.82
2023-04-15T20:58:34.427Z,8.80
2023-04-15T21:01:37.250Z,8.54
2023-04-15T21:04:41.529Z,8.57
2023-04-15T21:07:44.884Z,8.51
2023-04-15T21:10:47.959Z,8.54
2023-04-15T21:13:51.713Z,8.60
2023-04-15T21:16:54.536Z,8.55
2023-04-15T21:19:57.450Z,8.57
2023-04-15T21:23:00.196Z,8.66
2023-04-15T21:26:03.441Z,8.74
2023-04-15T21:29:08.763Z,8.61
2023-04-15T21:32:13.668Z,8.55
2023-04-15T21:35:16.414Z,8.51
2023-04-15T21:38:20.802Z,8.47
2023-04-15T21:41:25.814Z,8.20
2023-04-15T21:44:28.855Z,7.91
2023-04-15T21:47:31.791Z,7.75
2023-04-15T21:51:01.953Z,7.93
2023-04-15T21:54:04.536Z,8.16
2023-04-15T21:57:07.448Z,8.05
2023-04-15T22:00:11.714Z,7.98
2023-04-15T22:03:14.162Z,7.96
2023-04-15T22:06:17.560Z,8.01
2023-04-15T22:09:20.124Z,7.96
2023-04-15T22:12:23.768Z,7.85
2023-04-15T22:15:26.304Z,7.89
2023-04-15T22:18:29.553Z,7.99
2023-04-15T22:21:32.636Z,8.03
2023-04-15T22:24:40.129Z,8.04
2023-04-15T22:27:43.999Z,8.15
2023-04-15T22:30:46.820Z,8.01
2023-04-15T22:33:49.478Z,7.83
2023-04-15T22:36:52.666Z,7.81
2023-04-15T22:39:55.634Z,7.75
2023-04-15T22:42:59.559Z,7.54
2023-04-15T22:46:02.324Z,7.64
2023-04-15T22:49:09.866Z,7.74
2023-04-15T22:52:23.330Z,7.92
2023-04-15T22:55:32.715Z,7.98
2023-04-15T22:58:35.985Z,8.13
2023-04-15T23:01:39.155Z,8.18
2023-04-15T23:04:41.980Z,7.90
2023-04-15T23:07:44.886Z,7.68
2023-04-15T23:10:47.491Z,7.46
2023-04-15T23:13:50.871Z,7.49
2023-04-15T23:16:53.481Z,7.59
2023-04-15T23:19:56.570Z,7.61
2023-04-15T23:22:59.332Z,7.79
2023-04-15T23:26:04.024Z,7.72
2023-04-15T23:29:08.049Z,7.77
2023-04-15T23:32:11.216Z,7.87
2023-04-15T23:35:13.920Z,7.79
2023-04-15T23:38:16.870Z,7.83
2023-04-15T23:41:19.528Z,7.65
2023-04-15T23:44:22.866Z,7.62
2023-04-15T23:47:25.547Z,7.48
2023-04-15T23:50:28.665Z,7.33
2023-04-15T23:53:31.441Z,7.18
2023-04-15T23:56:34.812Z,7.11
2023-04-15T23:59:37.887Z,7.20
